Time;durP1;ratioP1;P1;durP2;ratioP2;P2;SDS_P1;SDS_P2;PMS_P1;PMS_P2;Temp;Humidity;BMP_temperature;BMP_pressure;BME280_temperature;BME280_humidity;BME280_pressure;Samples;Min_cycle;Max_cycle;Signal;HPM_P1;HPM_P2
2021/04/16 00:01:53;;;;;;;1.10;1.00;;;25.10;34.90;;;;;;5164445;27;20455;-41
2021/04/16 00:04:24;;;;;;;1.33;1.10;;;25.00;36.40;;;;;;5165875;27;20893;-41
2021/04/16 00:06:55;;;;;;;3.30;1.10;;;25.00;36.20;;;;;;5154367;27;20452;-40
2021/04/16 00:09:26;;;;;;;1.20;1.10;;;24.80;36.10;;;;;;5165175;27;20439;-41
2021/04/16 00:11:56;;;;;;;2.10;1.00;;;24.80;36.00;;;;;;5159256;27;20476;-42
2021/04/16 00:14:26;;;;;;;1.00;1.00;;;24.80;35.50;;;;;;5166403;27;20452;-41
2021/04/16 00:16:56;;;;;;;1.10;1.03;;;24.70;35.50;;;;;;5164915;27;20463;-41
2021/04/16 00:19:28;;;;;;;1.27;1.17;;;24.60;37.00;;;;;;5164121;27;20447;-40
2021/04/16 00:21:58;;;;;;;1.57;1.47;;;24.60;36.50;;;;;;5166239;27;20447;-41
2021/04/16 00:24:28;;;;;;;1.30;1.23;;;24.70;36.20;;;;;;5164807;27;20443;-40
2021/04/16 00:26:58;;;;;;;1.80;1.67;;;24.50;35.70;;;;;;5153463;27;20614;-41
2021/04/16 00:29:28;;;;;;;2.03;1.83;;;24.40;37.40;;;;;;5154871;27;20448;-41
2021/04/16 00:31:59;;;;;;;1.70;1.60;;;24.50;35.80;;;;;;5163248;27;20481;-41
2021/04/16 00:34:30;;;;;;;1.70;1.60;;;24.40;35.90;;;;;;5154504;27;20448;-41
2021/04/16 00:37:00;;;;;;;2.87;1.33;;;24.30;36.90;;;;;;5163545;27;20441;-41
2021/04/16 00:39:30;;;;;;;3.00;1.50;;;24.20;36.00;;;;;;5166394;27;20436;-40
2021/04/16 00:42:01;;;;;;;1.43;1.30;;;24.10;36.80;;;;;;5164636;27;20475;-41
2021/04/16 00:44:31;;;;;;;1.63;1.40;;;24.10;37.80;;;;;;5165860;27;20444;-40
2021/04/16 00:47:05;;;;;;;4.50;1.30;;;24.00;37.10;;;;;;5165476;27;20476;-41
2021/04/16 00:49:46;;;;;;;1.57;1.47;;;23.80;37.70;;;;;;5165014;27;20455;-41
2021/04/16 00:52:22;;;;;;;1.30;1.20;;;23.80;38.20;;;;;;5166283;27;20494;-37
2021/04/16 00:54:52;;;;;;;2.70;1.20;;;23.80;36.00;;;;;;5154806;27;20975;-40
2021/04/16 00:57:23;;;;;;;1.47;1.37;;;23.70;37.20;;;;;;5159494;27;20452;-40
2021/04/16 00:59:57;;;;;;;1.33;1.23;;;23.80;37.20;;;;;;5164665;27;20512;-41
2021/04/16 01:02:27;;;;;;;1.00;1.00;;;23.70;37.20;;;;;;5157196;27;20459;-40
2021/04/16 01:04:58;;;;;;;2.23;1.20;;;23.60;36.30;;;;;;5153473;27;20460;-41
2021/04/16 01:07:29;;;;;;;1.47;1.10;;;23.60;36.90;;;;;;5158648;27;20475;-40
2021/04/16 01:09:59;;;;;;;1.50;0.97;;;23.50;37.90;;;;;;5156200;27;20456;-41
2021/04/16 01:12:29;;;;;;;1.60;1.50;;;23.50;36.80;;;;;;5149019;27;20514;-41
2021/04/16 01:15:03;;;;;;;1.63;1.33;;;23.50;36.90;;;;;;5156463;27;20453;-41
2021/04/16 01:17:33;;;;;;;1.37;0.90;;;23.40;37.70;;;;;;5159766;27;20586;-41
2021/04/16 01:20:10;;;;;;;0.97;0.90;;;23.30;38.10;;;;;;5164523;27;20571;-41
2021/04/16 01:22:48;;;;;;;5.60;1.17;;;23.20;38.50;;;;;;5165274;27;20530;-41
2021/04/16 01:25:21;;;;;;;1.00;1.00;;;23.20;37.70;;;;;;5165012;27;20432;-41
2021/04/16 01:27:52;;;;;;;0.90;0.90;;;23.20;38.30;;;;;;5161776;27;20448;-41
2021/04/16 01:30:26;;;;;;;1.23;1.17;;;23.20;38.60;;;;;;5164005;27;20452;-40
2021/04/16 01:32:57;;;;;;;1.27;1.17;;;23.10;39.40;;;;;;5164012;27;20487;-41
2021/04/16 01:35:32;;;;;;;1.43;1.30;;;23.10;38.40;;;;;;5151673;27;20497;-40
2021/04/16 01:38:05;;;;;;;1.20;1.10;;;23.10;38.20;;;;;;5163830;27;20507;-40
2021/04/16 01:40:37;;;;;;;1.40;1.30;;;23.00;38.60;;;;;;5165341;27;20939;-40
2021/04/16 01:43:20;;;;;;;1.57;1.47;;;22.90;39.00;;;;;;5164049;27;20434;-40
2021/04/16 01:46:00;;;;;;;1.40;1.13;;;22.70;40.40;;;;;;5165226;27;20582;-42
2021/04/16 01:48:38;;;;;;;1.53;1.43;;;22.60;40.00;;;;;;5165013;27;20501;-41
2021/04/16 01:51:10;;;;;;;1.43;1.33;;;22.60;40.70;;;;;;5163335;27;20443;-39
2021/04/16 01:53:40;;;;;;;48.43;43.80;;;22.50;40.10;;;;;;5150115;27;20483;-41
2021/04/16 01:56:12;;;;;;;27.60;24.77;;;22.50;40.90;;;;;;5165020;27;20432;-41
2021/04/16 01:58:42;;;;;;;18.90;17.00;;;22.50;40.80;;;;;;5164447;27;20483;-41
2021/04/16 02:01:15;;;;;;;6.77;5.73;;;22.40;40.70;;;;;;5163420;27;20860;-42
2021/04/16 02:04:15;;;;;;;4.83;4.33;;;22.30;40.70;;;;;;5164699;27;20444;-40
2021/04/16 02:06:58;;;;;;;3.00;2.80;;;22.30;41.50;;;;;;5163082;27;20512;-41
2021/04/16 02:09:34;;;;;;;2.60;2.50;;;22.20;41.60;;;;;;5164903;27;20454;-41
2021/04/16 02:12:07;;;;;;;1.80;1.70;;;22.20;41.90;;;;;;5161830;27;20471;-40
2021/04/16 02:14:37;;;;;;;2.03;1.30;;;22.10;42.00;;;;;;5164992;27;20411;-41
2021/04/16 02:17:10;;;;;;;1.80;1.70;;;21.90;41.40;;;;;;5164454;27;20440;-41
2021/04/16 02:19:41;;;;;;;2.07;1.80;;;21.90;42.40;;;;;;5163575;27;20826;-39
2021/04/16 02:22:15;;;;;;;1.90;1.80;;;21.80;42.20;;;;;;5159846;27;20466;-38
2021/04/16 02:24:45;;;;;;;1.83;1.60;;;21.80;42.70;;;;;;5153552;27;20444;-40
2021/04/16 02:27:18;;;;;;;2.70;1.80;;;21.70;42.30;;;;;;5161847;27;20508;-43
2021/04/16 02:29:48;;;;;;;3.13;1.90;;;21.60;42.90;;;;;;5151135;27;20407;-40
2021/04/16 02:32:19;;;;;;;1.80;1.70;;;21.50;43.40;;;;;;5163640;27;20472;-40
2021/04/16 02:34:50;;;;;;;1.90;1.80;;;21.50;43.20;;;;;;5162633;27;20444;-41
2021/04/16 02:37:22;;;;;;;3.70;1.73;;;21.40;43.70;;;;;;5164143;27;20440;-41
2021/04/16 02:39:53;;;;;;;3.13;1.93;;;21.30;45.00;;;;;;5164877;27;20444;-39
2021/04/16 02:42:25;;;;;;;2.10;2.00;;;21.10;44.80;;;;;;5162937;27;20530;-40
2021/04/16 02:44:55;;;;;;;2.90;1.90;;;21.00;45.90;;;;;;5164675;27;20435;-39
2021/04/16 02:47:25;;;;;;;2.20;1.93;;;20.90;46.30;;;;;;5163893;27;20440;-40
2021/04/16 02:49:55;;;;;;;2.37;2.10;;;20.80;46.00;;;;;;5167530;27;20422;-40
2021/04/16 02:52:25;;;;;;;2.67;1.80;;;20.60;46.10;;;;;;5167510;27;20960;-40
2021/04/16 02:54:55;;;;;;;2.63;2.43;;;20.50;46.30;;;;;;5165545;27;20425;-40
2021/04/16 02:57:27;;;;;;;2.83;2.40;;;20.40;46.50;;;;;;5165991;27;20448;-40
2021/04/16 02:59:57;;;;;;;2.47;2.27;;;20.40;47.40;;;;;;5168296;27;20422;-39
2021/04/16 03:02:27;;;;;;;2.60;2.40;;;20.30;46.90;;;;;;5157817;27;20447;-40
2021/04/16 03:04:57;;;;;;;3.90;2.47;;;20.10;48.70;;;;;;5155204;27;20422;-37
2021/04/16 03:07:27;;;;;;;6.83;2.87;;;20.00;49.40;;;;;;5160497;27;20456;-40
2021/04/16 03:09:57;;;;;;;2.80;2.50;;;19.80;51.70;;;;;;5168319;27;20475;-40
2021/04/16 03:12:28;;;;;;;3.77;3.40;;;19.70;52.10;;;;;;5159292;27;20471;-39
2021/04/16 03:14:58;;;;;;;3.73;3.43;;;19.50;49.70;;;;;;5168414;27;20418;-39
2021/04/16 03:17:29;;;;;;;5.70;3.37;;;19.50;49.70;;;;;;5165803;27;20451;-40
2021/04/16 03:19:59;;;;;;;3.87;2.93;;;19.50;52.20;;;;;;5167630;27;20798;-40
2021/04/16 03:22:29;;;;;;;3.43;3.13;;;19.30;53.70;;;;;;5165260;27;20418;-40
2021/04/16 03:24:59;;;;;;;3.47;3.17;;;19.20;54.90;;;;;;5167949;27;20458;-40
2021/04/16 03:27:30;;;;;;;3.80;3.50;;;19.00;57.10;;;;;;5166885;27;20406;-40
2021/04/16 03:30:00;;;;;;;9.50;8.27;;;18.90;52.80;;;;;;5166451;27;20444;-38
2021/04/16 03:32:30;;;;;;;5.70;4.87;;;18.90;54.30;;;;;;5162156;27;20474;-41
2021/04/16 03:35:00;;;;;;;7.30;6.60;;;18.80;53.90;;;;;;5167837;27;20423;-41
2021/04/16 03:37:30;;;;;;;5.50;5.00;;;18.70;54.40;;;;;;5162617;27;20445;-41
2021/04/16 03:40:02;;;;;;;4.10;3.80;;;18.60;55.90;;;;;;5148607;27;20460;-40
2021/04/16 03:42:33;;;;;;;4.63;4.23;;;18.50;55.90;;;;;;5165518;27;20458;-39
2021/04/16 03:45:04;;;;;;;4.40;4.00;;;18.40;57.30;;;;;;5164579;27;20447;-39
2021/04/16 03:47:34;;;;;;;5.00;4.50;;;18.30;59.80;;;;;;5166878;27;20462;-34
2021/04/16 03:50:05;;;;;;;4.00;3.70;;;18.20;60.00;;;;;;5150941;27;20903;-40
2021/04/16 03:52:35;;;;;;;4.50;4.20;;;18.10;59.00;;;;;;5167148;27;20475;-40
2021/04/16 03:55:05;;;;;;;7.03;4.70;;;18.00;60.60;;;;;;5167033;27;20973;-39
2021/04/16 03:57:37;;;;;;;6.23;4.50;;;17.90;60.40;;;;;;5166531;27;20407;-39
2021/04/16 04:00:09;;;;;;;4.60;4.10;;;17.80;60.80;;;;;;5157951;27;20778;-40
2021/04/16 04:02:39;;;;;;;4.63;4.23;;;17.70;62.40;;;;;;5166592;27;20426;-40
2021/04/16 04:05:10;;;;;;;3.83;3.53;;;17.60;63.30;;;;;;5166269;27;20414;-37
2021/04/16 04:07:41;;;;;;;3.97;3.57;;;17.60;65.40;;;;;;5166887;27;20444;-40
2021/04/16 04:10:11;;;;;;;5.37;3.50;;;17.50;62.80;;;;;;5162367;27;20512;-40
2021/04/16 04:12:42;;;;;;;3.60;3.37;;;17.40;64.10;;;;;;5163129;27;20480;-42
2021/04/16 04:15:14;;;;;;;4.10;3.70;;;17.30;67.70;;;;;;5162451;27;20456;-39
2021/04/16 04:17:44;;;;;;;4.00;3.63;;;17.20;70.00;;;;;;5162497;27;20447;-39
2021/04/16 04:20:18;;;;;;;3.90;3.40;;;17.10;71.20;;;;;;5166260;27;20464;-39
2021/04/16 04:22:48;;;;;;;3.83;3.53;;;17.10;71.00;;;;;;5166558;27;20448;-39
2021/04/16 04:25:20;;;;;;;6.00;3.90;;;17.00;73.10;;;;;;5159510;27;20493;-40
2021/04/16 04:27:52;;;;;;;4.37;4.07;;;16.90;74.00;;;;;;5165835;27;20430;-40
2021/04/16 04:30:24;;;;;;;6.77;4.43;;;16.80;76.40;;;;;;5165980;27;20477;-40
2021/04/16 04:32:55;;;;;;;6.30;3.43;;;16.70;78.50;;;;;;5163990;27;20484;-38
2021/04/16 04:35:26;;;;;;;4.40;4.00;;;16.60;77.80;;;;;;5162710;27;20444;-38
2021/04/16 04:37:56;;;;;;;5.73;4.50;;;16.50;78.10;;;;;;5166168;27;20448;-38
2021/04/16 04:40:28;;;;;;;5.40;4.90;;;16.40;72.70;;;;;;5162910;27;20476;-40
2021/04/16 04:42:59;;;;;;;5.87;5.20;;;16.30;75.30;;;;;;5165889;27;20440;-38
2021/04/16 04:45:30;;;;;;;7.57;5.10;;;16.30;75.30;;;;;;5160937;27;20504;-39
2021/04/16 04:48:00;;;;;;;7.53;5.77;;;16.30;77.70;;;;;;5159187;27;20448;-39
2021/04/16 04:50:30;;;;;;;6.73;5.80;;;16.20;82.50;;;;;;5165882;27;20513;-40
2021/04/16 04:53:01;;;;;;;5.23;4.73;;;16.20;82.40;;;;;;5165864;27;20586;-40
2021/04/16 04:55:34;;;;;;;6.03;5.13;;;16.10;84.40;;;;;;5166230;27;20523;-39
2021/04/16 04:58:05;;;;;;;5.90;5.30;;;16.00;87.40;;;;;;5164124;27;20432;-40
2021/04/16 05:00:35;;;;;;;6.20;5.23;;;16.00;85.10;;;;;;5161111;27;20461;-39
2021/04/16 05:03:05;;;;;;;6.20;5.70;;;16.00;88.70;;;;;;5165499;27;20454;-40
2021/04/16 05:05:35;;;;;;;6.00;5.50;;;15.90;90.00;;;;;;5165992;27;20482;-40
2021/04/16 05:08:06;;;;;;;6.73;5.97;;;15.80;90.80;;;;;;5165287;27;20453;-40
2021/04/16 05:10:36;;;;;;;6.03;5.50;;;15.70;91.60;;;;;;5160145;27;20462;-39
2021/04/16 05:13:07;;;;;;;7.47;6.77;;;15.60;91.70;;;;;;5163417;27;20475;-39
2021/04/16 05:15:37;;;;;;;7.10;6.50;;;15.60;92.00;;;;;;5165793;27;20452;-39
2021/04/16 05:18:08;;;;;;;8.00;7.30;;;15.50;93.40;;;;;;5163460;27;20444;-39
2021/04/16 05:20:39;;;;;;;10.13;9.03;;;15.40;93.20;;;;;;5160833;27;20443;-37
2021/04/16 05:23:10;;;;;;;10.93;10.03;;;15.40;94.20;;;;;;5163904;27;20911;-39
2021/04/16 05:25:40;;;;;;;12.50;11.40;;;15.30;95.20;;;;;;5162623;27;20428;-39
2021/04/16 05:28:11;;;;;;;12.70;11.40;;;15.30;96.40;;;;;;5164016;27;20422;-39
2021/04/16 05:30:42;;;;;;;10.57;9.67;;;15.20;96.60;;;;;;5164983;27;20469;-39
2021/04/16 05:33:12;;;;;;;10.43;9.53;;;15.20;95.80;;;;;;5159184;27;20509;-39
2021/04/16 05:35:42;;;;;;;12.90;11.70;;;15.10;95.90;;;;;;5160182;27;20460;-40
2021/04/16 05:38:12;;;;;;;11.70;10.80;;;15.00;96.10;;;;;;5165120;27;20436;-39
2021/04/16 05:40:42;;;;;;;11.60;10.57;;;14.90;97.50;;;;;;5165399;27;20560;-39
2021/04/16 05:43:14;;;;;;;11.47;10.47;;;14.90;98.70;;;;;;5163118;27;20478;-39
2021/04/16 05:45:44;;;;;;;10.93;10.00;;;14.90;99.90;;;;;;5160821;27;20451;-38
2021/04/16 05:48:14;;;;;;;12.50;11.20;;;14.80;99.90;;;;;;5155640;27;20469;-39
2021/04/16 05:50:44;;;;;;;13.00;11.77;;;14.70;99.90;;;;;;5162674;27;20444;-38
2021/04/16 05:53:14;;;;;;;12.50;11.27;;;14.60;99.90;;;;;;5160919;27;20587;-38
2021/04/16 05:55:44;;;;;;;14.20;12.20;;;14.50;99.90;;;;;;5161537;27;20451;-38
2021/04/16 05:58:15;;;;;;;12.03;11.10;;;14.50;99.90;;;;;;5163448;27;20559;-39
2021/04/16 06:00:45;;;;;;;9.70;8.80;;;14.50;99.70;;;;;;5164162;27;20444;-36
2021/04/16 06:03:17;;;;;;;8.40;7.73;;;14.50;99.90;;;;;;5162506;27;20501;-39
2021/04/16 06:05:47;;;;;;;8.03;7.10;;;14.40;99.40;;;;;;5154722;27;20506;-40
2021/04/16 06:08:20;;;;;;;7.30;6.60;;;14.40;99.80;;;;;;5162268;27;20516;-41
2021/04/16 06:10:50;;;;;;;7.33;6.73;;;14.40;99.90;;;;;;5164217;27;20444;-40
2021/04/16 06:13:21;;;;;;;6.93;6.33;;;14.40;99.90;;;;;;5163033;27;20555;-39
2021/04/16 06:15:52;;;;;;;7.40;6.80;;;14.30;99.90;;;;;;5156341;27;20455;-39
2021/04/16 06:18:23;;;;;;;8.27;7.57;;;14.30;99.90;;;;;;5162458;27;20451;-38
2021/04/16 06:20:53;;;;;;;8.40;7.50;;;14.20;99.90;;;;;;5160443;27;20545;-38
2021/04/16 06:23:23;;;;;;;10.03;7.07;;;14.10;99.90;;;;;;5164207;27;20967;-38
2021/04/16 06:25:53;;;;;;;7.10;6.30;;;14.00;99.90;;;;;;5163331;27;20456;-38
2021/04/16 06:28:25;;;;;;;7.30;6.17;;;14.00;99.90;;;;;;5162390;27;20874;-39
2021/04/16 06:30:55;;;;;;;9.80;6.43;;;14.00;99.90;;;;;;5168974;27;20447;-39
2021/04/16 06:33:27;;;;;;;7.77;6.20;;;13.90;99.90;;;;;;5159146;27;20490;-41
2021/04/16 06:36:02;;;;;;;8.30;6.43;;;13.90;99.90;;;;;;5165139;27;20465;-41
2021/04/16 06:38:34;;;;;;;7.00;6.30;;;13.80;99.90;;;;;;5168369;27;20453;-41
2021/04/16 06:41:08;;;;;;;7.37;6.50;;;13.70;99.90;;;;;;5169036;27;20539;-39
2021/04/16 06:43:44;;;;;;;9.07;6.80;;;13.60;99.90;;;;;;5166615;27;20505;-38
2021/04/16 06:46:20;;;;;;;9.27;6.57;;;13.60;99.90;;;;;;5165613;27;20456;-39
2021/04/16 06:48:50;;;;;;;8.50;6.53;;;13.50;99.90;;;;;;5167731;27;20440;-39
2021/04/16 06:51:22;;;;;;;6.47;5.97;;;13.50;99.90;;;;;;5168828;27;20497;-38
2021/04/16 06:53:58;;;;;;;7.63;6.93;;;13.40;99.90;;;;;;5167610;27;20475;-35
2021/04/16 06:56:32;;;;;;;6.30;5.80;;;13.40;99.90;;;;;;5165423;27;20451;-38
2021/04/16 06:59:09;;;;;;;11.20;6.90;;;13.30;99.90;;;;;;5164634;27;20443;-38
2021/04/16 07:01:45;;;;;;;6.63;6.03;;;13.40;99.90;;;;;;5154790;27;20503;-38
2021/04/16 07:04:37;;;;;;;6.20;5.70;;;13.40;99.90;;;;;;5167801;27;20484;-39
2021/04/16 07:07:15;;;;;;;5.90;5.43;;;13.30;99.90;;;;;;5161869;27;20447;-39
2021/04/16 07:09:47;;;;;;;5.60;5.10;;;13.20;99.90;;;;;;5168481;27;20508;-39
2021/04/16 07:12:19;;;;;;;5.57;5.07;;;13.20;99.90;;;;;;5167181;27;20451;-39
2021/04/16 07:14:53;;;;;;;5.70;5.17;;;13.10;99.90;;;;;;5160592;27;20448;-37
2021/04/16 07:17:25;;;;;;;5.90;5.40;;;13.10;99.90;;;;;;5168446;27;20432;-39
2021/04/16 07:19:56;;;;;;;5.33;4.83;;;13.00;99.90;;;;;;5166178;27;21191;-39
2021/04/16 07:22:33;;;;;;;5.30;4.80;;;13.00;99.90;;;;;;5167103;27;20480;-38
2021/04/16 07:25:24;;;;;;;5.30;4.80;;;13.00;99.90;;;;;;5159398;27;20471;-39
2021/04/16 07:27:57;;;;;;;6.17;5.57;;;13.00;99.90;;;;;;5164648;27;20451;-38
2021/04/16 07:30:40;;;;;;;5.63;5.13;;;12.90;99.90;;;;;;5168214;27;20443;-37
2021/04/16 07:33:31;;;;;;;5.90;5.07;;;12.80;99.90;;;;;;5167650;27;20475;-38
2021/04/16 07:36:24;;;;;;;5.87;4.47;;;12.80;99.90;;;;;;5155544;27;20448;-39
2021/04/16 07:39:27;;;;;;;5.77;5.30;;;12.80;99.90;;;;;;5166693;27;20509;-37
2021/04/16 07:42:14;;;;;;;6.93;5.13;;;12.80;99.90;;;;;;5161762;27;20563;-38
2021/04/16 07:45:12;;;;;;;7.00;4.83;;;12.70;99.90;;;;;;5167407;27;20432;-38
2021/04/16 07:47:44;;;;;;;7.07;5.03;;;12.60;99.90;;;;;;5164642;27;20436;-39
2021/04/16 07:50:30;;;;;;;6.13;5.63;;;12.50;99.90;;;;;;5161535;27;20439;-38
2021/04/16 07:53:00;;;;;;;5.87;5.37;;;12.40;99.90;;;;;;5167218;27;20479;-36
2021/04/16 07:55:31;;;;;;;6.20;5.40;;;12.40;99.90;;;;;;5161354;27;20448;-37
2021/04/16 07:58:07;;;;;;;7.60;6.07;;;12.40;99.90;;;;;;5154845;27;20461;-39
2021/04/16 08:00:40;;;;;;;6.17;5.50;;;12.40;99.90;;;;;;5160808;27;20500;-39
2021/04/16 08:03:16;;;;;;;7.07;6.20;;;12.40;99.90;;;;;;5149290;27;20474;-39
2021/04/16 08:05:49;;;;;;;6.90;5.93;;;12.40;99.90;;;;;;5167475;27;20446;-40
2021/04/16 08:08:27;;;;;;;5.50;5.10;;;12.30;99.90;;;;;;5166834;27;20504;-39
2021/04/16 08:11:12;;;;;;;5.78;5.15;;;12.20;99.90;;;;;;5166523;27;20452;-39
2021/04/16 08:13:55;;;;;;;5.93;5.38;;;12.20;99.90;;;;;;5151227;27;20218;-39
2021/04/16 08:16:27;;;;;;;6.10;5.50;;;12.10;99.90;;;;;;5164271;27;20605;-37
2021/04/16 08:19:29;;;;;;;5.57;5.10;;;12.00;99.90;;;;;;5162816;27;20452;-38
2021/04/16 08:22:02;;;;;;;6.97;5.10;;;12.00;99.90;;;;;;5152667;27;20440;-39
2021/04/16 08:24:37;;;;;;;5.40;4.93;;;12.00;99.90;;;;;;5164974;27;20439;-37
2021/04/16 08:27:16;;;;;;;5.53;5.03;;;11.80;99.90;;;;;;5160780;27;20464;-38
2021/04/16 08:29:52;;;;;;;6.80;4.90;;;11.80;99.90;;;;;;5166678;27;20440;-38
2021/04/16 08:32:31;;;;;;;8.53;4.87;;;11.70;99.90;;;;;;5166255;27;20504;-36
2021/04/16 08:35:07;;;;;;;5.93;5.43;;;11.70;99.90;;;;;;5156631;27;20503;-39
2021/04/16 08:37:43;;;;;;;5.33;4.90;;;11.60;99.90;;;;;;5165573;27;20450;-39
2021/04/16 08:40:18;;;;;;;5.60;5.07;;;11.60;99.90;;;;;;5166300;27;20516;-38
2021/04/16 08:42:49;;;;;;;6.03;4.57;;;11.60;99.90;;;;;;5164711;27;20448;-39
2021/04/16 08:45:22;;;;;;;5.37;4.87;;;11.50;99.90;;;;;;5166268;27;20440;-37
2021/04/16 08:47:56;;;;;;;5.90;5.40;;;11.50;99.90;;;;;;5153389;27;20441;-39
2021/04/16 08:50:31;;;;;;;9.63;4.83;;;11.50;99.90;;;;;;5165610;27;20475;-39
2021/04/16 08:53:03;;;;;;;5.55;5.05;;;11.40;99.90;;;;;;5165475;27;20471;-36
2021/04/16 08:55:36;;;;;;;5.20;4.80;;;11.40;99.90;;;;;;5165737;27;20203;-37
2021/04/16 08:58:12;;;;;;;6.43;4.90;;;11.30;99.90;;;;;;5165301;27;20934;-38
2021/04/16 09:00:43;;;;;;;6.33;5.00;;;11.30;99.90;;;;;;5164787;27;20519;-36
2021/04/16 09:03:18;;;;;;;5.72;5.22;;;11.20;99.90;;;;;;5163195;27;20564;-38
2021/04/16 09:05:59;;;;;;;6.20;5.70;;;11.20;99.90;;;;;;5165955;27;20202;-37
2021/04/16 09:08:38;;;;;;;6.25;5.53;;;11.20;99.90;;;;;;5149083;27;20201;-35
2021/04/16 09:11:10;;;;;;;6.75;5.60;;;11.10;99.90;;;;;;5165720;27;20202;-37
2021/04/16 09:13:58;;;;;;;6.38;5.78;;;11.00;99.90;;;;;;5164241;27;20255;-36
2021/04/16 09:16:53;;;;;;;6.17;5.57;;;11.00;99.90;;;;;;5164759;27;20298;-39
2021/04/16 09:19:58;;;;;;;6.90;5.15;;;11.00;99.90;;;;;;5149978;27;20451;-36
2021/04/16 09:22:50;;;;;;;5.30;4.80;;;10.80;99.90;;;;;;5165040;27;20228;-36
2021/04/16 09:25:48;;;;;;;9.75;5.32;;;10.80;99.90;;;;;;5164199;27;20208;-39
2021/04/16 09:28:50;;;;;;;5.28;4.78;;;10.80;99.90;;;;;;5069901;28;20221;-37
2021/04/16 09:31:52;;;;;;;5.38;4.90;;;10.80;99.90;;;;;;5069817;28;20204;-38
2021/04/16 09:34:25;;;;;;;5.68;5.15;;;10.70;99.90;;;;;;5070048;28;20227;-37
2021/04/16 09:37:15;;;;;;;5.65;4.70;;;10.70;99.90;;;;;;5079199;28;20262;-38
2021/04/16 09:40:02;;;;;;;5.65;4.97;;;10.60;99.90;;;;;;5070808;28;20201;-35
2021/04/16 09:42:39;;;;;;;6.95;4.70;;;10.50;99.90;;;;;;5079633;28;20201;-38
2021/04/16 09:45:13;;;;;;;5.00;4.60;;;10.50;99.90;;;;;;5073867;28;20571;-39
2021/04/16 09:47:54;;;;;;;8.80;4.57;;;10.50;99.90;;;;;;5079302;28;20613;-38
2021/04/16 09:50:37;;;;;;;5.22;4.82;;;10.40;99.90;;;;;;5074492;28;20447;-39
2021/04/16 09:53:28;;;;;;;5.90;5.28;;;10.40;99.90;;;;;;5064445;28;20695;-36
2021/04/16 09:56:19;;;;;;;4.70;4.37;;;10.40;99.90;;;;;;5079744;28;20198;-38
2021/04/16 09:59:29;;;;;;;5.95;5.00;;;10.40;99.90;;;;;;5079514;28;20497;-39
2021/04/16 10:02:24;;;;;;;5.20;4.70;;;10.30;99.90;;;;;;5073637;28;20209;-38
2021/04/16 10:05:01;;;;;;;5.25;4.75;;;10.20;99.90;;;;;;5151984;27;20202;-39
2021/04/16 10:07:38;;;;;;;5.30;4.80;;;10.20;99.90;;;;;;5151035;27;20198;-37
2021/04/16 10:10:20;;;;;;;7.55;4.82;;;10.20;99.90;;;;;;5165026;27;20194;-39
2021/04/16 10:13:01;;;;;;;7.57;4.77;;;10.10;99.90;;;;;;5156790;27;20334;-35
2021/04/16 10:15:37;;;;;;;7.32;5.70;;;10.10;99.90;;;;;;5157860;27;20244;-38
2021/04/16 10:18:16;;;;;;;7.07;5.80;;;10.10;99.90;;;;;;5160957;27;20194;-37
2021/04/16 10:21:02;;;;;;;7.95;5.00;;;10.10;99.90;;;;;;5160572;27;20448;-38
2021/04/16 10:23:36;;;;;;;5.95;5.30;;;10.00;99.90;;;;;;5148601;27;20206;-39
2021/04/16 12:38:46;;;;;;;5.30;4.32;;;8.60;99.90;;;;;;5079338;28;20672;-39
2021/04/16 12:41:19;;;;;;;4.93;4.28;;;8.50;99.90;;;;;;5079035;28;20228;-35
2021/04/16 12:43:51;;;;;;;7.10;4.68;;;8.40;99.90;;;;;;5081827;28;20201;-36
2021/04/16 12:46:24;;;;;;;6.65;4.68;;;8.50;99.90;;;;;;5080594;28;20208;-36
2021/04/16 12:48:55;;;;;;;5.15;4.65;;;8.50;99.90;;;;;;5090608;27;20215;-39
2021/04/16 12:51:25;;;;;;;4.70;4.30;;;8.50;99.90;;;;;;5165075;27;20255;-38
2021/04/16 12:53:55;;;;;;;5.05;4.35;;;8.50;99.90;;;;;;5151168;27;20245;-36
2021/04/16 12:56:33;;;;;;;4.45;4.05;;;8.40;99.90;;;;;;5163801;27;20260;-37
2021/04/16 12:59:08;;;;;;;6.25;4.57;;;8.30;99.90;;;;;;5164983;27;20198;-38
2021/04/16 13:01:39;;;;;;;5.15;4.10;;;8.30;99.90;;;;;;5165566;27;20205;-38
2021/04/16 13:04:10;;;;;;;7.22;4.72;;;8.30;99.90;;;;;;5165908;27;20223;-36
2021/04/16 13:06:43;;;;;;;5.63;4.50;;;8.30;99.90;;;;;;5163496;27;20194;-37
2021/04/16 13:09:15;;;;;;;4.40;4.00;;;8.20;99.90;;;;;;5166220;27;20296;-35
2021/04/16 13:11:47;;;;;;;7.07;3.88;;;8.20;99.90;;;;;;5156327;27;20224;-36
2021/04/16 13:14:17;;;;;;;4.70;3.70;;;8.20;99.90;;;;;;5160965;27;20223;-37
2021/04/16 13:16:49;;;;;;;4.07;3.60;;;8.10;99.90;;;;;;5161710;27;20243;-39
2021/04/16 13:19:25;;;;;;;5.00;3.95;;;8.10;99.90;;;;;;5163711;27;20519;-34
2021/04/16 13:22:00;;;;;;;3.90;3.50;;;8.10;99.90;;;;;;5148788;27;20205;-38
2021/04/16 13:24:31;;;;;;;4.88;4.38;;;8.00;99.90;;;;;;5157717;27;20555;-38
2021/04/16 13:27:03;;;;;;;4.10;3.80;;;8.00;99.90;;;;;;5163306;27;20269;-38
2021/04/16 13:29:33;;;;;;;4.15;3.28;;;8.00;99.90;;;;;;5151273;27;20190;-32
2021/04/16 13:32:10;;;;;;;4.53;3.72;;;8.00;99.90;;;;;;5164079;27;20274;-38
2021/04/16 13:34:41;;;;;;;6.30;4.15;;;8.00;99.90;;;;;;5163613;27;20267;-38
2021/04/16 13:37:14;;;;;;;4.65;4.10;;;8.00;99.90;;;;;;5161189;27;20218;-38
2021/04/16 13:39:45;;;;;;;4.47;4.05;;;7.90;99.90;;;;;;5165357;27;20198;-35
2021/04/16 13:42:17;;;;;;;5.72;3.85;;;8.10;99.90;;;;;;5163681;27;20215;-37
2021/04/16 13:44:47;;;;;;;4.32;3.90;;;8.10;99.90;;;;;;5163594;27;20214;-34
2021/04/16 13:47:22;;;;;;;4.38;3.95;;;8.10;99.90;;;;;;5147670;27;20206;-38
2021/04/16 13:49:53;;;;;;;7.60;3.72;;;8.10;99.90;;;;;;5164600;27;20240;-37
2021/04/16 13:52:23;;;;;;;4.35;3.92;;;8.10;99.90;;;;;;5163654;27;20230;-38
2021/04/16 13:54:53;;;;;;;4.80;4.40;;;8.00;99.90;;;;;;5163220;27;20306;-36
2021/04/16 13:57:23;;;;;;;5.82;4.75;;;8.10;99.90;;;;;;5163905;27;20292;-36
2021/04/16 13:59:53;;;;;;;5.70;5.10;;;8.20;99.90;;;;;;5164812;27;20267;-38
2021/04/16 14:02:29;;;;;;;5.75;5.25;;;8.10;99.90;;;;;;5164325;27;20558;-35
2021/04/16 14:04:59;;;;;;;9.55;5.55;;;8.20;99.90;;;;;;5164615;27;20338;-37
2021/04/16 14:07:29;;;;;;;7.28;5.75;;;8.30;99.90;;;;;;5157352;27;20190;-37
2021/04/16 14:09:59;;;;;;;5.65;4.80;;;8.50;99.90;;;;;;5164549;27;20251;-35
2021/04/16 14:12:29;;;;;;;6.63;4.47;;;8.90;99.90;;;;;;5163338;27;20258;-37
2021/04/16 14:14:59;;;;;;;7.70;4.85;;;9.70;99.90;;;;;;5164046;27;20218;-37
2021/04/16 14:17:36;;;;;;;7.78;4.15;;;10.10;99.90;;;;;;5164185;27;20194;-39
2021/04/16 14:20:13;;;;;;;5.47;3.97;;;10.30;99.90;;;;;;5163358;27;20268;-38
2021/04/16 14:22:45;;;;;;;4.85;4.10;;;10.50;99.90;;;;;;5163549;27;20182;-36
2021/04/16 14:25:17;;;;;;;6.57;4.05;;;10.50;99.90;;;;;;5164822;27;20198;-38
2021/04/16 14:27:48;;;;;;;4.63;4.22;;;10.50;99.90;;;;;;5163133;27;20251;-37
2021/04/16 14:30:20;;;;;;;4.30;3.90;;;10.50;99.90;;;;;;5164189;27;20286;-36
2021/04/16 14:32:53;;;;;;;6.60;5.25;;;10.70;99.90;;;;;;5163934;27;20537;-36
2021/04/16 14:35:26;;;;;;;4.70;4.20;;;10.90;99.90;;;;;;5164316;27;20238;-38
2021/04/16 14:37:56;;;;;;;5.20;4.70;;;10.90;99.90;;;;;;5163966;27;20696;-37
2021/04/16 14:40:27;;;;;;;4.65;4.25;;;11.00;99.90;;;;;;5164344;27;20230;-36
2021/04/16 14:42:58;;;;;;;5.80;4.20;;;11.10;99.90;;;;;;5162413;27;20538;-37
2021/04/16 14:45:30;;;;;;;4.97;4.57;;;11.40;99.90;;;;;;5162251;27;20459;-37
2021/04/16 14:48:01;;;;;;;6.33;4.37;;;11.90;99.90;;;;;;5168396;27;20448;-36
2021/04/16 14:50:31;;;;;;;6.03;4.10;;;12.50;99.90;;;;;;5168496;27;20496;-37
2021/04/16 14:53:05;;;;;;;5.33;4.40;;;12.90;99.90;;;;;;5157990;27;20452;-39
2021/04/16 14:55:37;;;;;;;4.70;4.30;;;13.40;99.90;;;;;;5167247;27;20623;-37
2021/04/16 14:58:08;;;;;;;3.90;3.60;;;13.90;99.90;;;;;;5167552;27;20459;-37
2021/04/16 15:00:39;;;;;;;5.47;4.33;;;14.70;99.90;;;;;;5163911;27;20462;-33
2021/04/16 15:03:10;;;;;;;7.83;4.20;;;16.20;99.10;;;;;;5159274;27;20467;-39
2021/04/16 15:05:41;;;;;;;8.00;4.13;;;18.00;93.50;;;;;;5164439;27;20484;-39
2021/04/16 15:08:14;;;;;;;4.50;4.10;;;19.10;89.30;;;;;;5167919;27;20416;-38
2021/04/16 15:10:49;;;;;;;5.63;3.90;;;20.10;81.00;;;;;;5167242;27;20407;-38
2021/04/16 15:13:23;;;;;;;3.97;3.40;;;20.90;73.40;;;;;;5151086;27;20943;-39
2021/04/16 15:15:57;;;;;;;3.90;3.50;;;21.20;65.90;;;;;;5150020;27;20483;-35
2021/04/16 15:18:30;;;;;;;5.13;3.53;;;20.80;66.90;;;;;;5146956;27;20848;-39
2021/04/16 15:21:01;;;;;;;4.13;3.40;;;21.10;66.30;;;;;;5161759;27;20444;-39
2021/04/16 15:23:31;;;;;;;3.20;3.00;;;22.00;62.00;;;;;;5167061;27;20438;-39
2021/04/16 15:26:04;;;;;;;3.63;2.73;;;22.50;59.60;;;;;;5167472;27;20450;-39
2021/04/16 15:28:38;;;;;;;3.40;3.20;;;23.00;57.40;;;;;;5166425;27;20475;-40
2021/04/16 15:31:11;;;;;;;7.37;3.10;;;23.50;55.60;;;;;;5165378;27;20466;-37
2021/04/16 15:47:38;;;;;;;5.00;3.77;;;27.30;45.90;;;;;;5167670;27;20423;-40
2021/04/16 15:50:13;;;;;;;3.67;3.30;;;27.70;44.40;;;;;;5167131;27;20453;-41